sensor_id;sensor_type;location;lat;lon;timestamp;temperature;humidity
13744;DHT22;6943;52.368;9.966;2023-08-24T00:00:37;17.80;99.90
13744;DHT22;6943;52.368;9.966;2023-08-24T00:03:03;17.70;99.90
13744;DHT22;6943;52.368;9.966;2023-08-24T00:05:29;17.70;99.90
13744;DHT22;6943;52.368;9.966;2023-08-24T00:07:54;17.70;99.90
13744;DHT22;6943;52.368;9.966;2023-08-24T00:10:20;17.70;99.90
13744;DHT22;6943;52.368;9.966;2023-08-24T00:12:45;17.70;1.00
13744;DHT22;6943;52.368;9.966;2023-08-24T00:15:11;17.70;1.00
13744;DHT22;6943;52.368;9.966;2023-08-24T00:17:37;17.70;1.00
13744;DHT22;6943;52.368;9.966;2023-08-24T00:20:05;17.60;1.00
13744;DHT22;6943;52.368;9.966;2023-08-24T00:22:33;17.60;1.00
13744;DHT22;6943;52.368;9.966;2023-08-24T00:24:58;17.70;1.00
13744;DHT22;6943;52.368;9.966;2023-08-24T00:27:24;17.70;1.00
13744;DHT22;6943;52.368;9.966;2023-08-24T00:29:49;17.80;99.90
13744;DHT22;6943;52.368;9.966;2023-08-24T00:32:15;17.80;99.90
13744;DHT22;6943;52.368;9.966;2023-08-24T00:34:40;17.80;99.90
13744;DHT22;6943;52.368;9.966;2023-08-24T00:37:06;17.80;99.90
13744;DHT22;6943;52.368;9.966;2023-08-24T00:39:31;17.80;99.90
13744;DHT22;6943;52.368;9.966;2023-08-24T00:41:57;17.80;99.90
13744;DHT22;6943;52.368;9.966;2023-08-24T00:44:22;17.80;99.90
13744;DHT22;6943;52.368;9.966;2023-08-24T00:46:48;17.60;99.90
13744;DHT22;6943;52.368;9.966;2023-08-24T00:49:14;17.70;1.00
13744;DHT22;6943;52.368;9.966;2023-08-24T00:51:40;17.70;99.90
13744;DHT22;6943;52.368;9.966;2023-08-24T00:54:05;17.70;99.90
13744;DHT22;6943;52.368;9.966;2023-08-24T00:56:32;17.70;99.90
13744;DHT22;6943;52.368;9.966;2023-08-24T00:58:57;17.70;1.00
13744;DHT22;6943;52.368;9.966;2023-08-24T01:01:23;17.70;1.00
13744;DHT22;6943;52.368;9.966;2023-08-24T01:03:49;17.70;1.00
13744;DHT22;6943;52.368;9.966;2023-08-24T01:06:15;17.70;99.90
13744;DHT22;6943;52.368;9.966;2023-08-24T01:08:41;17.80;99.90
13744;DHT22;6943;52.368;9.966;2023-08-24T01:16:13;17.70;99.90
13744;DHT22;6943;52.368;9.966;2023-08-24T01:18:42;17.70;99.90
13744;DHT22;6943;52.368;9.966;2023-08-24T01:21:08;17.70;99.90
13744;DHT22;6943;52.368;9.966;2023-08-24T01:23:53;17.70;99.90
13744;DHT22;6943;52.368;9.966;2023-08-24T01:26:23;17.60;99.90
13744;DHT22;6943;52.368;9.966;2023-08-24T01:28:49;17.60;1.00
13744;DHT22;6943;52.368;9.966;2023-08-24T01:31:16;17.60;1.00
13744;DHT22;6943;52.368;9.966;2023-08-24T01:33:42;17.50;1.00
13744;DHT22;6943;52.368;9.966;2023-08-24T01:36:12;17.50;1.00
13744;DHT22;6943;52.368;9.966;2023-08-24T01:38:38;17.50;1.00
13744;DHT22;6943;52.368;9.966;2023-08-24T01:43:34;17.40;1.00
13744;DHT22;6943;52.368;9.966;2023-08-24T01:46:04;17.30;1.00
13744;DHT22;6943;52.368;9.966;2023-08-24T01:48:30;17.10;99.90
13744;DHT22;6943;52.368;9.966;2023-08-24T01:50:57;17.10;1.00
13744;DHT22;6943;52.368;9.966;2023-08-24T01:53:24;17.10;1.00
13744;DHT22;6943;52.368;9.966;2023-08-24T01:55:50;17.10;1.00
13744;DHT22;6943;52.368;9.966;2023-08-24T01:58:16;17.10;1.00
13744;DHT22;6943;52.368;9.966;2023-08-24T02:00:41;17.10;1.00
13744;DHT22;6943;52.368;9.966;2023-08-24T02:03:07;17.10;1.00
13744;DHT22;6943;52.368;9.966;2023-08-24T02:05:32;17.10;1.00
13744;DHT22;6943;52.368;9.966;2023-08-24T02:07:59;17.10;1.00
13744;DHT22;6943;52.368;9.966;2023-08-24T02:10:25;17.10;99.90
13744;DHT22;6943;52.368;9.966;2023-08-24T02:12:51;17.10;99.90
13744;DHT22;6943;52.368;9.966;2023-08-24T02:15:17;17.10;1.00
13744;DHT22;6943;52.368;9.966;2023-08-24T02:17:43;17.00;1.00
13744;DHT22;6943;52.368;9.966;2023-08-24T02:20:09;17.00;1.00
13744;DHT22;6943;52.368;9.966;2023-08-24T02:22:36;17.00;1.00
13744;DHT22;6943;52.368;9.966;2023-08-24T02:25:02;16.90;1.00
13744;DHT22;6943;52.368;9.966;2023-08-24T02:27:30;16.90;1.00
13744;DHT22;6943;52.368;9.966;2023-08-24T02:29:56;17.00;1.00
13744;DHT22;6943;52.368;9.966;2023-08-24T02:32:21;16.90;1.00
13744;DHT22;6943;52.368;9.966;2023-08-24T02:34:47;17.00;1.00
13744;DHT22;6943;52.368;9.966;2023-08-24T02:37:12;17.00;1.00
13744;DHT22;6943;52.368;9.966;2023-08-24T02:39:38;16.90;1.00
13744;DHT22;6943;52.368;9.966;2023-08-24T02:42:03;16.80;1.00
13744;DHT22;6943;52.368;9.966;2023-08-24T02:44:29;16.80;1.00
13744;DHT22;6943;52.368;9.966;2023-08-24T02:46:54;16.70;1.00
13744;DHT22;6943;52.368;9.966;2023-08-24T02:49:20;16.70;1.00
13744;DHT22;6943;52.368;9.966;2023-08-24T02:51:46;16.70;1.00
13744;DHT22;6943;52.368;9.966;2023-08-24T02:54:11;18.20;1.00
13744;DHT22;6943;52.368;9.966;2023-08-24T02:56:37;16.60;78.30
13744;DHT22;6943;52.368;9.966;2023-08-24T02:59:02;16.60;99.90
13744;DHT22;6943;52.368;9.966;2023-08-24T03:01:28;16.60;99.90
13744;DHT22;6943;52.368;9.966;2023-08-24T03:03:53;16.50;99.90
13744;DHT22;6943;52.368;9.966;2023-08-24T03:06:19;16.60;99.90
13744;DHT22;6943;52.368;9.966;2023-08-24T03:08:44;16.50;99.90
13744;DHT22;6943;52.368;9.966;2023-08-24T03:11:10;16.50;99.90
13744;DHT22;6943;52.368;9.966;2023-08-24T03:13:37;16.50;99.90
13744;DHT22;6943;52.368;9.966;2023-08-24T03:16:06;16.50;99.90
13744;DHT22;6943;52.368;9.966;2023-08-24T03:18:31;16.50;99.90
13744;DHT22;6943;52.368;9.966;2023-08-24T03:20:57;16.40;99.90
13744;DHT22;6943;52.368;9.966;2023-08-24T03:23:23;16.40;99.90
13744;DHT22;6943;52.368;9.966;2023-08-24T03:25:48;16.40;1.00
13744;DHT22;6943;52.368;9.966;2023-08-24T03:28:14;16.40;1.00
13744;DHT22;6943;52.368;9.966;2023-08-24T03:30:46;16.50;1.00
13744;DHT22;6943;52.368;9.966;2023-08-24T03:33:12;16.50;99.90
13744;DHT22;6943;52.368;9.966;2023-08-24T03:35:37;16.50;99.90
13744;DHT22;6943;52.368;9.966;2023-08-24T03:38:03;16.50;99.90
13744;DHT22;6943;52.368;9.966;2023-08-24T03:40:29;16.40;99.90
13744;DHT22;6943;52.368;9.966;2023-08-24T03:42:55;16.40;1.00
13744;DHT22;6943;52.368;9.966;2023-08-24T03:45:21;16.40;1.00
13744;DHT22;6943;52.368;9.966;2023-08-24T03:47:47;16.30;1.00
13744;DHT22;6943;52.368;9.966;2023-08-24T03:50:12;16.30;1.00
13744;DHT22;6943;52.368;9.966;2023-08-24T03:52:38;16.70;1.00
13744;DHT22;6943;52.368;9.966;2023-08-24T03:55:05;16.30;1.00
13744;DHT22;6943;52.368;9.966;2023-08-24T03:57:31;16.30;1.00
13744;DHT22;6943;52.368;9.966;2023-08-24T03:59:57;16.20;1.00
13744;DHT22;6943;52.368;9.966;2023-08-24T04:02:23;16.20;1.00
13744;DHT22;6943;52.368;9.966;2023-08-24T04:04:49;16.20;1.00
13744;DHT22;6943;52.368;9.966;2023-08-24T04:07:15;18.00;1.00
13744;DHT22;6943;52.368;9.966;2023-08-24T04:09:40;16.20;1.00
13744;DHT22;6943;52.368;9.966;2023-08-24T04:12:06;16.20;1.00
13744;DHT22;6943;52.368;9.966;2023-08-24T04:14:32;16.20;1.00
13744;DHT22;6943;52.368;9.966;2023-08-24T04:16:57;16.20;1.00
13744;DHT22;6943;52.368;9.966;2023-08-24T04:19:23;16.20;1.00
13744;DHT22;6943;52.368;9.966;2023-08-24T04:21:48;16.20;1.00
13744;DHT22;6943;52.368;9.966;2023-08-24T04:24:14;16.30;1.00
13744;DHT22;6943;52.368;9.966;2023-08-24T04:26:39;16.40;1.00
13744;DHT22;6943;52.368;9.966;2023-08-24T04:29:05;16.40;1.00
13744;DHT22;6943;52.368;9.966;2023-08-24T04:31:30;16.50;1.00
13744;DHT22;6943;52.368;9.966;2023-08-24T04:33:56;16.50;1.00
13744;DHT22;6943;52.368;9.966;2023-08-24T04:36:21;16.60;1.00
13744;DHT22;6943;52.368;9.966;2023-08-24T04:38:47;16.80;99.90
13744;DHT22;6943;52.368;9.966;2023-08-24T04:41:12;16.80;99.90
13744;DHT22;6943;52.368;9.966;2023-08-24T04:43:38;16.90;1.00
13744;DHT22;6943;52.368;9.966;2023-08-24T04:46:04;17.50;1.00
13744;DHT22;6943;52.368;9.966;2023-08-24T04:48:29;18.30;99.90
13744;DHT22;6943;52.368;9.966;2023-08-24T04:51:00;19.10;1.00
13744;DHT22;6943;52.368;9.966;2023-08-24T04:53:26;19.70;99.90
13744;DHT22;6943;52.368;9.966;2023-08-24T04:55:52;19.60;1.00
13744;DHT22;6943;52.368;9.966;2023-08-24T04:58:18;19.60;1.00
13744;DHT22;6943;52.368;9.966;2023-08-24T05:00:44;20.20;99.90
13744;DHT22;6943;52.368;9.966;2023-08-24T05:03:09;21.30;1.00
13744;DHT22;6943;52.368;9.966;2023-08-24T05:05:36;22.10;1.00
13744;DHT22;6943;52.368;9.966;2023-08-24T05:08:03;23.10;1.00
13744;DHT22;6943;52.368;9.966;2023-08-24T05:10:34;24.10;1.00
13744;DHT22;6943;52.368;9.966;2023-08-24T05:13:00;25.00;1.00
13744;DHT22;6943;52.368;9.966;2023-08-24T05:15:26;25.70;1.00
13744;DHT22;6943;52.368;9.966;2023-08-24T05:17:51;25.40;1.00
13744;DHT22;6943;52.368;9.966;2023-08-24T05:20:22;24.50;1.00
13744;DHT22;6943;52.368;9.966;2023-08-24T05:22:48;23.80;99.90
13744;DHT22;6943;52.368;9.966;2023-08-24T05:25:13;23.40;1.00
13744;DHT22;6943;52.368;9.966;2023-08-24T05:27:41;23.40;1.00
13744;DHT22;6943;52.368;9.966;2023-08-24T05:30:07;22.90;1.00
13744;DHT22;6943;52.368;9.966;2023-08-24T05:32:34;22.00;1.00
13744;DHT22;6943;52.368;9.966;2023-08-24T05:35:03;21.30;99.90
13744;DHT22;6943;52.368;9.966;2023-08-24T05:37:29;20.80;1.00
13744;DHT22;6943;52.368;9.966;2023-08-24T05:39:54;20.40;31.10
13744;DHT22;6943;52.368;9.966;2023-08-24T05:42:20;20.20;99.90
13744;DHT22;6943;52.368;9.966;2023-08-24T05:44:45;20.00;1.00
13744;DHT22;6943;52.368;9.966;2023-08-24T05:47:11;19.80;1.00
13744;DHT22;6943;52.368;9.966;2023-08-24T05:49:36;19.60;1.00
13744;DHT22;6943;52.368;9.966;2023-08-24T05:52:02;19.70;1.00
13744;DHT22;6943;52.368;9.966;2023-08-24T05:54:27;19.80;1.00
13744;DHT22;6943;52.368;9.966;2023-08-24T05:56:53;19.80;1.00
13744;DHT22;6943;52.368;9.966;2023-08-24T05:59:18;19.90;1.00
13744;DHT22;6943;52.368;9.966;2023-08-24T06:01:44;19.80;1.00
13744;DHT22;6943;52.368;9.966;2023-08-24T06:04:09;19.80;1.00
13744;DHT22;6943;52.368;9.966;2023-08-24T06:06:35;19.70;10.70
13744;DHT22;6943;52.368;9.966;2023-08-24T06:09:02;19.60;99.90
13744;DHT22;6943;52.368;9.966;2023-08-24T06:11:30;19.50;99.90
13744;DHT22;6943;52.368;9.966;2023-08-24T06:13:55;19.50;99.90
13744;DHT22;6943;52.368;9.966;2023-08-24T06:16:21;19.40;99.90
13744;DHT22;6943;52.368;9.966;2023-08-24T06:18:46;19.30;1.00
13744;DHT22;6943;52.368;9.966;2023-08-24T06:21:12;19.20;1.00
13744;DHT22;6943;52.368;9.966;2023-08-24T06:23:38;19.00;99.90
13744;DHT22;6943;52.368;9.966;2023-08-24T06:26:04;18.70;1.00
13744;DHT22;6943;52.368;9.966;2023-08-24T06:28:30;18.70;99.90
13744;DHT22;6943;52.368;9.966;2023-08-24T06:30:56;18.90;99.90
13744;DHT22;6943;52.368;9.966;2023-08-24T06:33:27;19.00;1.00
13744;DHT22;6943;52.368;9.966;2023-08-24T06:35:52;19.30;1.00
13744;DHT22;6943;52.368;9.966;2023-08-24T06:38:18;19.20;99.90
13744;DHT22;6943;52.368;9.966;2023-08-24T06:40:43;19.30;99.90
13744;DHT22;6943;52.368;9.966;2023-08-24T06:43:09;19.60;1.00
13744;DHT22;6943;52.368;9.966;2023-08-24T06:45:34;19.80;99.90
13744;DHT22;6943;52.368;9.966;2023-08-24T06:48:00;19.90;1.00
13744;DHT22;6943;52.368;9.966;2023-08-24T06:50:25;19.80;99.90
13744;DHT22;6943;52.368;9.966;2023-08-24T06:52:51;19.90;99.90
13744;DHT22;6943;52.368;9.966;2023-08-24T06:55:17;19.80;1.00
13744;DHT22;6943;52.368;9.966;2023-08-24T06:57:47;19.40;1.00
13744;DHT22;6943;52.368;9.966;2023-08-24T07:00:13;19.40;99.90
13744;DHT22;6943;52.368;9.966;2023-08-24T07:02:40;20.10;99.90
13744;DHT22;6943;52.368;9.966;2023-08-24T07:05:06;20.80;99.90
13744;DHT22;6943;52.368;9.966;2023-08-24T07:07:34;21.60;1.00
13744;DHT22;6943;52.368;9.966;2023-08-24T07:09:59;22.70;9.50
13744;DHT22;6943;52.368;9.966;2023-08-24T07:12:25;23.60;99.90
13744;DHT22;6943;52.368;9.966;2023-08-24T07:14:50;23.90;1.00
13744;DHT22;6943;52.368;9.966;2023-08-24T07:17:16;26.10;1.00
13744;DHT22;6943;52.368;9.966;2023-08-24T07:19:41;29.40;1.00
13744;DHT22;6943;52.368;9.966;2023-08-24T07:22:07;31.00;1.00
13744;DHT22;6943;52.368;9.966;2023-08-24T07:24:33;31.70;1.00
13744;DHT22;6943;52.368;9.966;2023-08-24T07:27:01;34.20;1.00
13744;DHT22;6943;52.368;9.966;2023-08-24T07:29:26;35.40;1.00
13744;DHT22;6943;52.368;9.966;2023-08-24T07:31:52;37.80;1.00
13744;DHT22;6943;52.368;9.966;2023-08-24T07:34:17;39.40;1.00
13744;DHT22;6943;52.368;9.966;2023-08-24T07:36:43;38.90;99.90
13744;DHT22;6943;52.368;9.966;2023-08-24T07:39:10;39.50;99.90
13744;DHT22;6943;52.368;9.966;2023-08-24T07:41:37;38.70;99.90
13744;DHT22;6943;52.368;9.966;2023-08-24T07:44:02;37.80;99.90
13744;DHT22;6943;52.368;9.966;2023-08-24T07:46:28;36.20;99.90
13744;DHT22;6943;52.368;9.966;2023-08-24T07:48:53;34.20;99.90
13744;DHT22;6943;52.368;9.966;2023-08-24T07:51:19;34.50;1.00
13744;DHT22;6943;52.368;9.966;2023-08-24T07:53:45;34.50;1.00
13744;DHT22;6943;52.368;9.966;2023-08-24T07:56:10;35.40;1.00
13744;DHT22;6943;52.368;9.966;2023-08-24T07:58:36;34.10;1.00
13744;DHT22;6943;52.368;9.966;2023-08-24T08:01:01;33.30;1.00
13744;DHT22;6943;52.368;9.966;2023-08-24T08:03:27;32.60;1.00
13744;DHT22;6943;52.368;9.966;2023-08-24T08:05:52;31.90;1.00
13744;DHT22;6943;52.368;9.966;2023-08-24T08:08:18;31.40;1.00
13744;DHT22;6943;52.368;9.966;2023-08-24T08:10:44;32.90;1.00
13744;DHT22;6943;52.368;9.966;2023-08-24T08:13:09;33.80;1.00
13744;DHT22;6943;52.368;9.966;2023-08-24T08:15:38;35.70;1.00
13744;DHT22;6943;52.368;9.966;2023-08-24T08:18:05;37.20;1.00
13744;DHT22;6943;52.368;9.966;2023-08-24T08:20:30;38.90;99.90
13744;DHT22;6943;52.368;9.966;2023-08-24T08:22:56;38.50;99.90
13744;DHT22;6943;52.368;9.966;2023-08-24T08:25:22;39.00;99.90
13744;DHT22;6943;52.368;9.966;2023-08-24T08:27:48;39.00;99.90
13744;DHT22;6943;52.368;9.966;2023-08-24T08:30:14;37.20;99.90
13744;DHT22;6943;52.368;9.966;2023-08-24T08:32:40;35.30;99.90
13744;DHT22;6943;52.368;9.966;2023-08-24T08:35:06;35.10;99.90
13744;DHT22;6943;52.368;9.966;2023-08-24T08:37:32;34.60;99.90
13744;DHT22;6943;52.368;9.966;2023-08-24T08:39:57;32.70;99.90
13744;DHT22;6943;52.368;9.966;2023-08-24T08:42:23;33.50;99.90
13744;DHT22;6943;52.368;9.966;2023-08-24T08:44:49;34.90;99.90
13744;DHT22;6943;52.368;9.966;2023-08-24T08:47:15;36.30;99.90
13744;DHT22;6943;52.368;9.966;2023-08-24T08:49:43;37.20;99.90
13744;DHT22;6943;52.368;9.966;2023-08-24T08:52:09;37.50;99.90
13744;DHT22;6943;52.368;9.966;2023-08-24T08:54:35;38.30;99.90
13744;DHT22;6943;52.368;9.966;2023-08-24T08:57:01;37.50;99.90
13744;DHT22;6943;52.368;9.966;2023-08-24T08:59:30;37.20;99.90
13744;DHT22;6943;52.368;9.966;2023-08-24T09:01:57;37.20;99.90
13744;DHT22;6943;52.368;9.966;2023-08-24T09:04:24;36.60;99.90
13744;DHT22;6943;52.368;9.966;2023-08-24T09:06:50;37.50;99.90
13744;DHT22;6943;52.368;9.966;2023-08-24T09:09:15;37.70;99.90
13744;DHT22;6943;52.368;9.966;2023-08-24T09:11:42;35.30;99.90
13744;DHT22;6943;52.368;9.966;2023-08-24T09:14:12;34.30;99.90
13744;DHT22;6943;52.368;9.966;2023-08-24T09:16:37;35.20;99.90
13744;DHT22;6943;52.368;9.966;2023-08-24T09:19:05;36.30;99.90
13744;DHT22;6943;52.368;9.966;2023-08-24T09:21:31;36.90;99.90
13744;DHT22;6943;52.368;9.966;2023-08-24T09:24:01;35.80;99.90
13744;DHT22;6943;52.368;9.966;2023-08-24T09:26:32;34.60;99.90
13744;DHT22;6943;52.368;9.966;2023-08-24T09:28:59;32.70;99.90
13744;DHT22;6943;52.368;9.966;2023-08-24T09:31:36;31.00;99.90
13744;DHT22;6943;52.368;9.966;2023-08-24T09:34:02;29.50;99.90
13744;DHT22;6943;52.368;9.966;2023-08-24T09:36:34;29.20;99.90
13744;DHT22;6943;52.368;9.966;2023-08-24T09:39:00;28.60;99.90
13744;DHT22;6943;52.368;9.966;2023-08-24T09:41:39;28.50;1.00
13744;DHT22;6943;52.368;9.966;2023-08-24T09:44:05;29.50;1.00
13744;DHT22;6943;52.368;9.966;2023-08-24T09:46:31;27.80;1.00
13744;DHT22;6943;52.368;9.966;2023-08-24T09:48:56;27.10;1.00
13744;DHT22;6943;52.368;9.966;2023-08-24T09:51:26;26.80;1.00
13744;DHT22;6943;52.368;9.966;2023-08-24T09:53:57;26.60;99.90
13744;DHT22;6943;52.368;9.966;2023-08-24T09:56:25;26.10;1.00
13744;DHT22;6943;52.368;9.966;2023-08-24T09:58:54;26.40;1.00
13744;DHT22;6943;52.368;9.966;2023-08-24T10:01:20;26.70;1.00
13744;DHT22;6943;52.368;9.966;2023-08-24T10:03:49;26.90;1.00
13744;DHT22;6943;52.368;9.966;2023-08-24T10:06:19;26.80;1.00
13744;DHT22;6943;52.368;9.966;2023-08-24T10:08:52;27.20;1.00
13744;DHT22;6943;52.368;9.966;2023-08-24T10:11:23;27.00;1.00
13744;DHT22;6943;52.368;9.966;2023-08-24T10:14:12;26.40;1.00
13744;DHT22;6943;52.368;9.966;2023-08-24T10:16:38;26.40;1.00
13744;DHT22;6943;52.368;9.966;2023-08-24T10:19:04;26.00;1.00
13744;DHT22;6943;52.368;9.966;2023-08-24T10:21:31;25.50;1.00
13744;DHT22;6943;52.368;9.966;2023-08-24T10:23:57;25.80;1.00
13744;DHT22;6943;52.368;9.966;2023-08-24T10:26:24;26.10;1.00
13744;DHT22;6943;52.368;9.966;2023-08-24T10:28:50;26.10;1.00
13744;DHT22;6943;52.368;9.966;2023-08-24T10:31:16;26.20;1.00
13744;DHT22;6943;52.368;9.966;2023-08-24T10:33:44;26.20;1.00
13744;DHT22;6943;52.368;9.966;2023-08-24T10:36:10;26.30;1.00
13744;DHT22;6943;52.368;9.966;2023-08-24T10:38:42;26.50;1.00
13744;DHT22;6943;52.368;9.966;2023-08-24T10:41:08;26.60;1.00
13744;DHT22;6943;52.368;9.966;2023-08-24T10:43:37;26.50;1.00
13744;DHT22;6943;52.368;9.966;2023-08-24T10:46:03;26.50;1.00
13744;DHT22;6943;52.368;9.966;2023-08-24T10:48:31;26.30;1.00
13744;DHT22;6943;52.368;9.966;2023-08-24T10:56:14;25.70;1.00
13744;DHT22;6943;52.368;9.966;2023-08-24T10:58:40;25.80;1.00
13744;DHT22;6943;52.368;9.966;2023-08-24T11:01:05;25.90;1.00
13744;DHT22;6943;52.368;9.966;2023-08-24T11:03:34;26.30;1.00
13744;DHT22;6943;52.368;9.966;2023-08-24T11:05:59;26.70;1.00
13744;DHT22;6943;52.368;9.966;2023-08-24T11:08:47;27.10;1.00
13744;DHT22;6943;52.368;9.966;2023-08-24T11:11:20;27.70;1.00
13744;DHT22;6943;52.368;9.966;2023-08-24T11:14:15;27.70;1.00
13744;DHT22;6943;52.368;9.966;2023-08-24T11:17:17;27.00;1.00
13744;DHT22;6943;52.368;9.966;2023-08-24T11:19:51;27.20;1.00
13744;DHT22;6943;52.368;9.966;2023-08-24T11:22:17;27.30;1.00
13744;DHT22;6943;52.368;9.966;2023-08-24T11:24:44;27.70;1.00
13744;DHT22;6943;52.368;9.966;2023-08-24T11:27:09;28.10;1.00
13744;DHT22;6943;52.368;9.966;2023-08-24T11:29:35;28.20;1.00
13744;DHT22;6943;52.368;9.966;2023-08-24T11:32:00;28.10;1.00
13744;DHT22;6943;52.368;9.966;2023-08-24T11:34:26;28.20;1.00
13744;DHT22;6943;52.368;9.966;2023-08-24T11:36:51;28.50;1.00
13744;DHT22;6943;52.368;9.966;2023-08-24T11:39:20;28.50;1.00
13744;DHT22;6943;52.368;9.966;2023-08-24T11:42:02;28.60;1.00
13744;DHT22;6943;52.368;9.966;2023-08-24T11:44:28;28.10;1.00
13744;DHT22;6943;52.368;9.966;2023-08-24T11:46:56;28.10;1.00
13744;DHT22;6943;52.368;9.966;2023-08-24T11:49:23;27.90;1.00
13744;DHT22;6943;52.368;9.966;2023-08-24T11:51:50;28.30;1.00
13744;DHT22;6943;52.368;9.966;2023-08-24T11:54:18;27.60;1.00
13744;DHT22;6943;52.368;9.966;2023-08-24T11:56:44;27.30;1.00
13744;DHT22;6943;52.368;9.966;2023-08-24T11:59:16;27.00;1.00
13744;DHT22;6943;52.368;9.966;2023-08-24T12:01:42;26.90;1.00
13744;DHT22;6943;52.368;9.966;2023-08-24T12:04:08;27.10;1.00
13744;DHT22;6943;52.368;9.966;2023-08-24T12:06:33;27.20;1.00
13744;DHT22;6943;52.368;9.966;2023-08-24T12:08:59;27.00;1.00
13744;DHT22;6943;52.368;9.966;2023-08-24T12:11:25;27.10;1.00
13744;DHT22;6943;52.368;9.966;2023-08-24T12:13:53;27.10;1.00
13744;DHT22;6943;52.368;9.966;2023-08-24T12:16:20;27.20;1.00
13744;DHT22;6943;52.368;9.966;2023-08-24T12:18:47;27.10;1.00
13744;DHT22;6943;52.368;9.966;2023-08-24T12:21:14;27.10;1.00
13744;DHT22;6943;52.368;9.966;2023-08-24T12:23:39;27.30;1.00
13744;DHT22;6943;52.368;9.966;2023-08-24T12:26:05;27.10;1.00
13744;DHT22;6943;52.368;9.966;2023-08-24T12:28:33;27.10;1.00
13744;DHT22;6943;52.368;9.966;2023-08-24T12:30:59;27.10;1.00
13744;DHT22;6943;52.368;9.966;2023-08-24T12:33:30;27.10;1.00
13744;DHT22;6943;52.368;9.966;2023-08-24T12:35:56;27.20;1.00
13744;DHT22;6943;52.368;9.966;2023-08-24T12:38:23;27.40;1.00
13744;DHT22;6943;52.368;9.966;2023-08-24T12:40:49;27.50;1.00
13744;DHT22;6943;52.368;9.966;2023-08-24T12:43:15;27.70;1.00
13744;DHT22;6943;52.368;9.966;2023-08-24T12:45:40;27.90;1.00
13744;DHT22;6943;52.368;9.966;2023-08-24T12:48:06;27.60;1.00
13744;DHT22;6943;52.368;9.966;2023-08-24T12:50:33;27.30;1.00
13744;DHT22;6943;52.368;9.966;2023-08-24T12:52:58;27.30;1.00
13744;DHT22;6943;52.368;9.966;2023-08-24T12:55:28;27.10;1.00
13744;DHT22;6943;52.368;9.966;2023-08-24T12:57:54;27.30;1.00
13744;DHT22;6943;52.368;9.966;2023-08-24T13:00:20;27.40;1.00
13744;DHT22;6943;52.368;9.966;2023-08-24T13:02:48;27.50;1.00
13744;DHT22;6943;52.368;9.966;2023-08-24T13:05:13;27.60;1.00
13744;DHT22;6943;52.368;9.966;2023-08-24T13:07:39;27.80;1.00
13744;DHT22;6943;52.368;9.966;2023-08-24T13:10:04;27.60;1.00
13744;DHT22;6943;52.368;9.966;2023-08-24T13:12:31;28.10;1.00
13744;DHT22;6943;52.368;9.966;2023-08-24T13:14:57;28.40;1.00
13744;DHT22;6943;52.368;9.966;2023-08-24T13:17:23;28.30;1.00
13744;DHT22;6943;52.368;9.966;2023-08-24T13:19:48;28.10;1.00
13744;DHT22;6943;52.368;9.966;2023-08-24T13:22:16;27.90;1.00
13744;DHT22;6943;52.368;9.966;2023-08-24T13:24:42;27.90;1.00
13744;DHT22;6943;52.368;9.966;2023-08-24T13:27:11;27.80;1.00
13744;DHT22;6943;52.368;9.966;2023-08-24T13:29:37;27.60;1.00
13744;DHT22;6943;52.368;9.966;2023-08-24T13:32:03;27.90;1.00
13744;DHT22;6943;52.368;9.966;2023-08-24T13:34:29;28.20;1.00
13744;DHT22;6943;52.368;9.966;2023-08-24T13:36:55;28.10;1.00
13744;DHT22;6943;52.368;9.966;2023-08-24T13:39:21;28.20;1.00
13744;DHT22;6943;52.368;9.966;2023-08-24T13:41:46;28.30;1.00
13744;DHT22;6943;52.368;9.966;2023-08-24T13:44:12;28.40;1.00
13744;DHT22;6943;52.368;9.966;2023-08-24T13:46:38;28.30;1.00
13744;DHT22;6943;52.368;9.966;2023-08-24T13:49:04;28.10;1.00
13744;DHT22;6943;52.368;9.966;2023-08-24T13:51:29;28.00;1.00
13744;DHT22;6943;52.368;9.966;2023-08-24T13:53:55;27.90;1.00
13744;DHT22;6943;52.368;9.966;2023-08-24T13:56:20;27.80;1.00
13744;DHT22;6943;52.368;9.966;2023-08-24T13:58:46;27.80;1.00
13744;DHT22;6943;52.368;9.966;2023-08-24T14:01:12;27.80;1.00
13744;DHT22;6943;52.368;9.966;2023-08-24T14:03:38;27.90;1.00
13744;DHT22;6943;52.368;9.966;2023-08-24T14:06:05;28.10;1.00
13744;DHT22;6943;52.368;9.966;2023-08-24T14:08:31;28.20;1.00
13744;DHT22;6943;52.368;9.966;2023-08-24T14:10:56;28.10;1.00
13744;DHT22;6943;52.368;9.966;2023-08-24T14:13:22;27.90;1.00
13744;DHT22;6943;52.368;9.966;2023-08-24T14:15:49;27.90;1.00
13744;DHT22;6943;52.368;9.966;2023-08-24T14:18:15;28.10;1.00
13744;DHT22;6943;52.368;9.966;2023-08-24T14:20:42;28.10;1.00
13744;DHT22;6943;52.368;9.966;2023-08-24T14:23:08;28.10;1.00
13744;DHT22;6943;52.368;9.966;2023-08-24T14:25:33;28.10;1.00
13744;DHT22;6943;52.368;9.966;2023-08-24T14:27:59;28.00;1.00
13744;DHT22;6943;52.368;9.966;2023-08-24T14:30:25;28.10;1.00
13744;DHT22;6943;52.368;9.966;2023-08-24T14:32:50;28.20;1.00
13744;DHT22;6943;52.368;9.966;2023-08-24T14:35:16;28.50;1.00
13744;DHT22;6943;52.368;9.966;2023-08-24T14:37:41;28.80;1.00
13744;DHT22;6943;52.368;9.966;2023-08-24T14:40:07;28.90;1.00
13744;DHT22;6943;52.368;9.966;2023-08-24T14:42:33;29.20;1.00
13744;DHT22;6943;52.368;9.966;2023-08-24T14:44:59;29.20;1.00
13744;DHT22;6943;52.368;9.966;2023-08-24T14:47:24;28.90;1.00
13744;DHT22;6943;52.368;9.966;2023-08-24T14:49:50;29.00;1.00
13744;DHT22;6943;52.368;9.966;2023-08-24T14:52:15;29.00;1.00
13744;DHT22;6943;52.368;9.966;2023-08-24T14:54:41;29.00;1.00
13744;DHT22;6943;52.368;9.966;2023-08-24T14:57:06;28.60;1.00
13744;DHT22;6943;52.368;9.966;2023-08-24T14:59:32;28.40;1.00
13744;DHT22;6943;52.368;9.966;2023-08-24T15:02:00;28.30;1.00
13744;DHT22;6943;52.368;9.966;2023-08-24T15:04:27;28.10;1.00
13744;DHT22;6943;52.368;9.966;2023-08-24T15:06:52;28.20;1.00
13744;DHT22;6943;52.368;9.966;2023-08-24T15:09:18;28.40;1.00
13744;DHT22;6943;52.368;9.966;2023-08-24T15:11:43;28.60;1.00
13744;DHT22;6943;52.368;9.966;2023-08-24T15:14:09;28.70;1.00
13744;DHT22;6943;52.368;9.966;2023-08-24T15:16:35;28.90;1.00
13744;DHT22;6943;52.368;9.966;2023-08-24T15:19:00;28.90;1.00
13744;DHT22;6943;52.368;9.966;2023-08-24T15:21:26;29.00;1.00
13744;DHT22;6943;52.368;9.966;2023-08-24T15:23:53;29.00;1.00
13744;DHT22;6943;52.368;9.966;2023-08-24T15:26:19;28.80;1.00
13744;DHT22;6943;52.368;9.966;2023-08-24T15:29:07;28.60;1.00
13744;DHT22;6943;52.368;9.966;2023-08-24T15:31:33;28.50;1.00
13744;DHT22;6943;52.368;9.966;2023-08-24T15:33:58;28.50;1.00
13744;DHT22;6943;52.368;9.966;2023-08-24T15:36:23;28.60;1.00
13744;DHT22;6943;52.368;9.966;2023-08-24T15:38:49;28.60;1.00
13744;DHT22;6943;52.368;9.966;2023-08-24T15:41:15;28.60;1.00
13744;DHT22;6943;52.368;9.966;2023-08-24T15:43:40;28.70;1.00
13744;DHT22;6943;52.368;9.966;2023-08-24T15:46:06;28.70;1.00
13744;DHT22;6943;52.368;9.966;2023-08-24T15:48:31;28.70;1.00
13744;DHT22;6943;52.368;9.966;2023-08-24T15:50:57;28.60;1.00
13744;DHT22;6943;52.368;9.966;2023-08-24T15:53:24;28.50;1.00
13744;DHT22;6943;52.368;9.966;2023-08-24T15:55:50;28.40;1.00
13744;DHT22;6943;52.368;9.966;2023-08-24T15:58:16;28.30;1.00
13744;DHT22;6943;52.368;9.966;2023-08-24T16:00:41;28.30;1.00
13744;DHT22;6943;52.368;9.966;2023-08-24T16:03:07;28.20;1.00
13744;DHT22;6943;52.368;9.966;2023-08-24T16:05:33;28.10;1.00